This is the latest recevied weather packets stored in our database for station/object OE3APM-13. If no packets are shown the sender has not sent any weather packets the latest 1 day(s).
| Time | Temp. | Humidity | Pressure | Rain* | Wind** | Luminosity | Snow |
|---|---|---|---|---|---|---|---|
| 1836274785 | 13.89° C | 89% | 1024.1 hPa | 0 mm | 1.79 m/s, 70° | 0 W/m² | - |
| 1836274479 | 13.89° C | 90% | 1024.1 hPa | 0 mm | 1.34 m/s, 51° | 0 W/m² | - |
| 1836274342 | 13.89° C | 89% | 1024 hPa | 0 mm | 1.34 m/s, 86° | 0 W/m² | - |
| 1836274170 | 13.89° C | 89% | 1024.1 hPa | 0 mm | 1.34 m/s, 78° | 0 W/m² | - |
| 1836273868 | 13.89° C | 89% | 1024.1 hPa | 0 mm | 1.34 m/s, 50° | 0 W/m² | - |
| 1778028271 | 12.22° C | 86% | 1007.5 hPa | 0 mm | 0.89 m/s, 265° | 0 W/m² | - |
| 1778027969 | 12.22° C | 86% | 1007.4 hPa | 0 mm | 0.89 m/s, 271° | 0 W/m² | - |
| 1778027677 | 12.22° C | 86% | 1007.3 hPa | 0 mm | 1.34 m/s, 290° | 0 W/m² | - |
| 1778027369 | 12.22° C | 86% | 1007.4 hPa | 0 mm | 1.79 m/s, 255° | 0 W/m² | - |
| 1778027069 | 12.78° C | 85% | 1007.3 hPa | 0 mm | 1.79 m/s, 188° | 0 W/m² | - |
| 1778026769 | 12.78° C | 84% | 1007.4 hPa | 0 mm | 1.79 m/s, 255° | 0 W/m² | - |
| 1778026470 | 12.78° C | 83% | 1007.1 hPa | 0 mm | 1.79 m/s, 284° | 0 W/m² | - |
| 1778026173 | 13.33° C | 82% | 1007.1 hPa | 0 mm | 1.79 m/s, 290° | 0 W/m² | - |
| 1778025863 | 13.33° C | 81% | 1007 hPa | 0 mm | 1.34 m/s, 274° | 0 W/m² | - |
| 1778025565 | 13.33° C | 81% | 1007 hPa | 0 mm | 1.34 m/s, 277° | 0 W/m² | - |
| 1778025263 | 13.33° C | 81% | 1006.9 hPa | 0 mm | 1.79 m/s, 275° | 0 W/m² | - |
| 1778024964 | 13.33° C | 80% | 1006.9 hPa | 0 mm | 2.24 m/s, 279° | 0 W/m² | - |
| 1778024662 | 13.89° C | 80% | 1006.9 hPa | 0 mm | 2.24 m/s, 290° | 0 W/m² | - |
| 1778024363 | 13.89° C | 79% | 1006.9 hPa | 0 mm | 2.24 m/s, 283° | 0 W/m² | - |
| 1778024061 | 13.89° C | 78% | 1006.9 hPa | 0 mm | 2.68 m/s, 306° | 0 W/m² | - |
| 1778023760 | 14.44° C | 78% | 1006.8 hPa | 0 mm | 2.68 m/s, 284° | 0 W/m² | - |
| 1778023462 | 14.44° C | 76% | 1006.8 hPa | 0 mm | 2.68 m/s, 313° | 0 W/m² | - |
| 1778023157 | 14.44° C | 76% | 1006.8 hPa | 0 mm | 2.68 m/s, 296° | 0 W/m² | - |
| 1778022854 | 14.44° C | 76% | 1006.6 hPa | 0 mm | 3.13 m/s, 316° | 0 W/m² | - |
| 1778022556 | 14.44° C | 76% | 1006.5 hPa | 0 mm | 3.13 m/s, 300° | 0 W/m² | - |
* Rain latest hour (hover to see other rain measurements)
** Current wind speed in m/s (hover to see current wind gust speed)